Hovedside
METAR-TAF:

METAR-TAF

Lufthavner :

Kajana lufthavn

Kajana, Finland

breddegrad: 64-17N, lengdegrad: 027-41E, høyde over havet: 143 m

Gjeldene værobservasjon

Denne rapporten ble laget for 40 minutter siden, klokken 20:20 UTC
Vind 6 kt fra Vest-sørvest
Temperatur 9°C
Luftfuktighet 46%
Trykk 1022 hPa
Sikt 10 km eller mer
ingen skyer under 1500 m og ingen bygeskyer

METAR: EFKI 232020Z AUTO 25006KT CAVOK 09/M02 Q1022

Tid: 00:00 (21:00 UTC)

Varsel

Denne rapporten ble laget for 3 timer og 31 minutter siden, klokken 17:29 UTC
Varsel gyldig fra 23. klokken 18 UTC til 23. klokken 21 UTC
Vind 8 kt fra Vest-nordvest
Sikt 10 km eller mer
ingen skyer under 1500 m og ingen bygeskyer

TAF: EFKI 231729Z 2318/2321 30008KT CAVOK

Værobservasjoner og værvarsel for over 4000 flyplasser (METAR- og TAF-rapporter).

Tilgjengelige stasjoner er representert av de røde og gule prikkene på kartet.

Hold musepekeren over prikken for å se navnet på stasjonen.

Klikk så for å se værobservasjoner og -varsler.

For å forandre kartet kan du klikke på den grønne knappen med svart kryss for å zoome inn, på den grønne knappen med strek for å zoome ut, eller på de grønne pilene for å se tilstøtende kart.


METAR-TAF: